Time;durP1;ratioP1;P1;durP2;ratioP2;P2;SDS_P1;SDS_P2;PMS_P1;PMS_P2;Temp;Humidity;BMP_temperature;BMP_pressure;BME280_temperature;BME280_humidity;BME280_pressure;Samples;Min_cycle;Max_cycle;Signal;HPM_P1;HPM_P2
2021/03/30 00:01:25;;;;;;;4.90;4.23;;;7.60;99.90;;;;;;5009264;28;20658;-87
2021/03/30 00:03:51;;;;;;;5.33;4.27;;;7.50;99.90;;;;;;5018525;28;20650;-87
2021/03/30 00:06:18;;;;;;;6.07;4.67;;;7.50;99.90;;;;;;5016918;28;21236;-87
2021/03/30 00:08:45;;;;;;;5.03;4.60;;;7.50;99.90;;;;;;5010626;28;20659;-86
2021/03/30 00:11:11;;;;;;;5.43;4.90;;;7.50;99.90;;;;;;5008326;28;20655;-88
2021/03/30 00:13:38;;;;;;;6.50;4.73;;;7.40;99.90;;;;;;5008113;28;20623;-87
2021/03/30 00:16:05;;;;;;;4.90;4.50;;;7.40;99.90;;;;;;5010705;28;20623;-87
2021/03/30 00:18:31;;;;;;;6.23;4.60;;;7.30;99.90;;;;;;5014825;28;20611;-87
2021/03/30 00:20:57;;;;;;;8.83;4.47;;;7.40;99.90;;;;;;5018753;28;20646;-87
2021/03/30 00:23:31;;;;;;;6.27;4.50;;;7.30;99.90;;;;;;5033065;28;20627;-87
2021/03/30 00:26:12;;;;;;;5.93;5.33;;;7.30;99.90;;;;;;5033454;28;20693;-88
2021/03/30 00:28:38;;;;;;;5.73;5.07;;;7.30;99.90;;;;;;5028141;28;20690;-87
2021/03/30 00:31:05;;;;;;;5.20;4.70;;;7.20;99.90;;;;;;5019169;28;21201;-88
2021/03/30 00:33:31;;;;;;;6.10;4.57;;;7.20;99.90;;;;;;5018672;28;21158;-87
2021/03/30 00:35:57;;;;;;;6.97;5.53;;;7.20;99.90;;;;;;5015655;28;20631;-88
2021/03/30 00:38:24;;;;;;;8.30;5.30;;;7.20;99.90;;;;;;5018377;28;20638;-87
2021/03/30 00:40:52;;;;;;;6.07;4.70;;;7.10;99.90;;;;;;5019273;28;20647;-88
2021/03/30 00:43:19;;;;;;;7.57;6.00;;;7.10;99.90;;;;;;5012877;28;21183;-88
2021/03/30 00:45:46;;;;;;;6.43;4.80;;;7.00;99.90;;;;;;5020193;28;20623;-87
2021/03/30 00:48:21;;;;;;;6.27;4.80;;;7.00;99.90;;;;;;5008395;28;20620;-88
2021/03/30 00:50:48;;;;;;;6.80;5.60;;;6.90;99.90;;;;;;5015048;28;20647;-87
2021/03/30 00:53:14;;;;;;;6.77;4.73;;;6.90;99.90;;;;;;5014111;28;20701;-87
2021/03/30 00:55:40;;;;;;;5.90;4.63;;;6.80;99.90;;;;;;5020973;28;20649;-88
2021/03/30 00:58:07;;;;;;;7.90;5.73;;;6.80;99.90;;;;;;5016741;28;20628;-88
2021/03/30 01:00:35;;;;;;;8.83;5.47;;;6.80;99.90;;;;;;5020961;28;20663;-87
2021/03/30 01:03:02;;;;;;;7.87;5.93;;;6.80;99.90;;;;;;5008817;28;20634;-87
2021/03/30 01:05:28;;;;;;;5.03;4.50;;;6.80;99.90;;;;;;5014392;28;20631;-88
2021/03/30 01:08:11;;;;;;;6.13;5.27;;;6.70;99.90;;;;;;5017076;28;20722;-87
2021/03/30 01:10:48;;;;;;;8.40;5.23;;;6.70;99.90;;;;;;5016021;28;20646;-89
2021/03/30 01:13:38;;;;;;;5.70;5.10;;;6.60;99.90;;;;;;5015370;28;20675;-89
2021/03/30 01:16:09;;;;;;;9.07;5.27;;;6.60;99.90;;;;;;5014455;28;20624;-87
2021/03/30 01:18:44;;;;;;;5.20;4.77;;;6.60;99.90;;;;;;5013567;28;20628;-87
2021/03/30 01:21:39;;;;;;;6.40;5.37;;;6.50;99.90;;;;;;5013767;28;20989;-87
2021/03/30 01:24:20;;;;;;;9.07;5.80;;;6.50;99.90;;;;;;5004766;28;21103;-86
2021/03/30 01:26:55;;;;;;;6.90;5.47;;;6.40;99.90;;;;;;5013510;28;20615;-87
2021/03/30 01:29:38;;;;;;;7.60;6.30;;;6.30;99.90;;;;;;5011979;28;20623;-88
2021/03/30 01:32:07;;;;;;;5.60;4.73;;;6.30;99.90;;;;;;5010533;28;20655;-86
2021/03/30 01:34:35;;;;;;;7.87;6.20;;;6.30;99.90;;;;;;5013491;28;20635;-88
2021/03/30 01:37:03;;;;;;;6.53;5.70;;;6.20;99.90;;;;;;5012843;28;20627;-87
2021/03/30 01:39:32;;;;;;;6.87;6.17;;;6.20;99.90;;;;;;5014111;28;21249;-87
2021/03/30 01:41:59;;;;;;;6.10;5.50;;;6.20;99.90;;;;;;5017337;28;20624;-88
2021/03/30 01:44:27;;;;;;;6.10;5.50;;;6.10;99.90;;;;;;5013602;28;20623;-86
2021/03/30 01:46:54;;;;;;;8.00;6.03;;;6.10;99.90;;;;;;5017500;28;20753;-87
2021/03/30 01:49:23;;;;;;;7.50;5.40;;;6.10;99.90;;;;;;5016475;28;21022;-86
2021/03/30 01:51:50;;;;;;;7.27;6.50;;;6.00;99.90;;;;;;5015652;28;21355;-87
2021/03/30 01:54:18;;;;;;;7.10;5.53;;;6.00;99.90;;;;;;5014024;28;21194;-87
2021/03/30 01:56:46;;;;;;;7.27;5.80;;;6.00;99.90;;;;;;5013544;28;21024;-87
2021/03/30 01:59:16;;;;;;;6.57;5.97;;;6.00;99.90;;;;;;5009307;28;20983;-87
2021/03/30 02:01:45;;;;;;;8.23;6.17;;;5.90;99.90;;;;;;5010379;28;20627;-87
2021/03/30 02:04:13;;;;;;;6.30;5.70;;;5.90;99.90;;;;;;5002598;28;20611;-88
2021/03/30 02:06:42;;;;;;;7.03;6.30;;;5.90;99.90;;;;;;5009121;28;20623;-87
2021/03/30 02:09:16;;;;;;;7.53;5.83;;;5.90;99.90;;;;;;5011043;28;20987;-87
2021/03/30 02:11:46;;;;;;;7.20;5.83;;;5.90;99.90;;;;;;5008654;28;20683;-86
2021/03/30 02:14:13;;;;;;;7.17;5.53;;;5.90;99.90;;;;;;5010932;28;20627;-87
2021/03/30 02:16:48;;;;;;;6.57;5.73;;;5.80;99.90;;;;;;5012347;28;20631;-87
2021/03/30 02:19:18;;;;;;;6.13;5.53;;;5.80;99.90;;;;;;5012275;28;20689;-88
2021/03/30 02:21:49;;;;;;;7.90;6.77;;;5.80;99.90;;;;;;5011223;28;20598;-86
2021/03/30 02:24:17;;;;;;;6.70;5.33;;;5.60;99.90;;;;;;5014561;28;20642;-87
2021/03/30 02:26:47;;;;;;;7.47;6.47;;;5.60;99.90;;;;;;5018809;28;20708;-87
2021/03/30 02:29:17;;;;;;;6.03;5.53;;;5.60;99.90;;;;;;5018578;28;21366;-87
2021/03/30 02:31:45;;;;;;;8.00;6.60;;;5.60;99.90;;;;;;5008911;28;20686;-87
2021/03/30 02:34:14;;;;;;;5.53;4.93;;;5.60;99.90;;;;;;5011825;28;21205;-86
2021/03/30 02:36:42;;;;;;;6.50;5.63;;;5.60;99.90;;;;;;5012269;28;20626;-87
2021/03/30 02:39:12;;;;;;;6.17;5.57;;;5.60;99.90;;;;;;5010090;28;20627;-87
2021/03/30 02:41:40;;;;;;;5.93;5.43;;;5.60;99.90;;;;;;5016578;28;20615;-88
2021/03/30 02:44:09;;;;;;;7.00;6.30;;;5.60;99.90;;;;;;5007293;28;20644;-87
2021/03/30 02:46:36;;;;;;;8.00;5.90;;;5.60;99.90;;;;;;5015825;28;20632;-87
2021/03/30 02:49:03;;;;;;;7.73;6.27;;;5.60;99.90;;;;;;5011888;28;20635;-87
2021/03/30 02:51:33;;;;;;;6.50;5.90;;;5.50;99.90;;;;;;5010760;28;20656;-87
2021/03/30 02:54:00;;;;;;;5.90;5.37;;;5.50;99.90;;;;;;5018051;28;20612;-87
2021/03/30 02:56:27;;;;;;;6.87;6.27;;;5.40;99.90;;;;;;5015414;28;20698;-87
2021/03/30 02:58:54;;;;;;;6.30;5.67;;;5.40;99.90;;;;;;5018073;28;20634;-87
2021/03/30 03:01:22;;;;;;;7.43;6.33;;;5.30;99.90;;;;;;5014105;28;20652;-87
2021/03/30 03:03:50;;;;;;;6.63;5.70;;;5.40;99.90;;;;;;5028434;28;20639;-87
2021/03/30 03:06:17;;;;;;;8.07;6.57;;;5.40;99.90;;;;;;5017745;28;20634;-87
2021/03/30 03:08:45;;;;;;;6.53;5.93;;;5.40;99.90;;;;;;5015235;28;20654;-87
2021/03/30 03:11:14;;;;;;;6.47;5.87;;;5.30;99.90;;;;;;5009081;28;20655;-88
2021/03/30 03:13:43;;;;;;;6.37;5.77;;;5.30;99.90;;;;;;5015549;28;20639;-89
2021/03/30 03:16:11;;;;;;;9.93;6.27;;;5.30;99.90;;;;;;5013026;28;20627;-87
2021/03/30 03:18:39;;;;;;;8.03;5.90;;;5.40;99.90;;;;;;5010414;28;20617;-86
2021/03/30 03:21:05;;;;;;;6.37;5.40;;;5.30;99.90;;;;;;5015953;28;20640;-87
2021/03/30 03:23:32;;;;;;;7.07;6.10;;;5.20;99.90;;;;;;5014871;28;20624;-87
2021/03/30 03:26:00;;;;;;;6.43;5.83;;;5.20;99.90;;;;;;5012686;28;21197;-87
2021/03/30 03:28:26;;;;;;;7.43;5.70;;;5.10;99.90;;;;;;5010685;28;20630;-89
2021/03/30 03:30:53;;;;;;;7.60;5.97;;;5.10;99.90;;;;;;5009913;28;20817;-87
2021/03/30 03:33:20;;;;;;;6.97;6.27;;;5.10;99.90;;;;;;5008319;28;21370;-87
2021/03/30 03:36:07;;;;;;;6.30;5.70;;;5.00;99.90;;;;;;5008962;28;20640;-86
2021/03/30 03:38:33;;;;;;;6.50;5.87;;;5.00;99.90;;;;;;5012935;28;20631;-87
2021/03/30 03:41:00;;;;;;;6.20;5.67;;;4.90;99.90;;;;;;5010593;28;20665;-87
2021/03/30 03:43:27;;;;;;;8.80;6.10;;;5.00;99.90;;;;;;5017340;28;20660;-87
2021/03/30 03:45:53;;;;;;;6.33;5.60;;;5.00;99.90;;;;;;5007363;28;20631;-88
2021/03/30 03:48:19;;;;;;;8.37;6.40;;;5.00;99.90;;;;;;5007234;28;21161;-87
2021/03/30 03:50:47;;;;;;;7.57;5.97;;;5.00;99.90;;;;;;5014823;28;20979;-87
2021/03/30 03:53:15;;;;;;;7.83;6.40;;;5.00;99.90;;;;;;5006944;28;20664;-88
2021/03/30 03:55:47;;;;;;;8.33;6.50;;;4.90;99.90;;;;;;5008878;28;20635;-87
2021/03/30 03:58:19;;;;;;;8.60;5.97;;;4.90;99.90;;;;;;5008729;28;20631;-87
2021/03/30 04:00:45;;;;;;;10.80;7.10;;;5.00;99.90;;;;;;5012431;28;20646;-87
2021/03/30 04:03:20;;;;;;;6.90;5.80;;;5.00;99.90;;;;;;5012885;28;20649;-87
2021/03/30 04:06:02;;;;;;;13.00;7.60;;;4.90;99.90;;;;;;5014436;28;20666;-87
2021/03/30 04:08:32;;;;;;;7.40;6.50;;;4.80;99.90;;;;;;5013250;28;20624;-89
2021/03/30 04:11:01;;;;;;;10.10;6.40;;;4.70;99.90;;;;;;5014352;28;20655;-88
2021/03/30 04:13:32;;;;;;;7.07;6.43;;;4.70;99.90;;;;;;5014620;28;20655;-87
2021/03/30 04:16:02;;;;;;;8.37;6.40;;;4.70;99.90;;;;;;5017790;28;20735;-89
2021/03/30 04:18:29;;;;;;;7.70;6.90;;;4.70;99.90;;;;;;5015163;28;20619;-87
2021/03/30 04:20:55;;;;;;;9.23;5.80;;;4.80;99.90;;;;;;5014417;28;21382;-88
2021/03/30 04:23:24;;;;;;;7.83;6.13;;;4.90;99.90;;;;;;5007636;28;20624;-87
2021/03/30 04:25:51;;;;;;;9.63;6.80;;;4.90;99.90;;;;;;5014373;28;20651;-88
2021/03/30 04:28:18;;;;;;;9.07;6.97;;;4.90;99.90;;;;;;5004354;28;21016;-88
2021/03/30 04:30:45;;;;;;;8.20;6.50;;;4.80;99.90;;;;;;5011088;28;20661;-87
2021/03/30 04:33:11;;;;;;;6.93;6.13;;;4.90;99.90;;;;;;5016524;28;20667;-88
2021/03/30 04:35:38;;;;;;;9.13;6.70;;;4.80;99.90;;;;;;5012951;28;20654;-87
2021/03/30 04:38:04;;;;;;;7.47;6.37;;;4.70;99.90;;;;;;5013293;28;21205;-87
2021/03/30 04:40:30;;;;;;;9.37;5.90;;;4.60;99.90;;;;;;5012078;28;20678;-86
2021/03/30 04:42:57;;;;;;;7.30;5.83;;;4.50;99.90;;;;;;5011295;28;20983;-87
2021/03/30 04:45:23;;;;;;;7.00;6.20;;;4.40;99.90;;;;;;5017387;28;21118;-88
2021/03/30 04:47:50;;;;;;;10.43;6.87;;;4.40;99.90;;;;;;5016087;28;20700;-87
2021/03/30 04:50:17;;;;;;;6.73;6.13;;;4.40;99.90;;;;;;5011763;28;20651;-88
2021/03/30 04:52:43;;;;;;;10.07;6.27;;;4.50;99.90;;;;;;5011319;28;20654;-88
2021/03/30 04:55:12;;;;;;;8.70;6.53;;;4.40;99.90;;;;;;5011423;28;20643;-88
2021/03/30 04:57:38;;;;;;;7.10;6.50;;;4.30;99.90;;;;;;5006170;28;20628;-88
2021/03/30 05:00:06;;;;;;;9.00;7.00;;;4.30;99.90;;;;;;5010710;28;21090;-87
2021/03/30 05:02:32;;;;;;;6.53;5.90;;;4.30;99.90;;;;;;5006655;28;20716;-87
2021/03/30 05:04:59;;;;;;;7.93;7.13;;;4.30;99.90;;;;;;5006471;28;20631;-87
2021/03/30 05:07:25;;;;;;;10.23;6.67;;;4.30;99.90;;;;;;5017678;28;20687;-87
2021/03/30 05:09:52;;;;;;;8.93;7.10;;;4.30;99.90;;;;;;5019042;28;20662;-87
2021/03/30 05:12:18;;;;;;;8.47;6.83;;;4.30;99.90;;;;;;5005935;28;20672;-87
2021/03/30 05:14:44;;;;;;;8.40;7.30;;;4.20;99.90;;;;;;5012449;28;20722;-87
2021/03/30 05:17:11;;;;;;;9.37;6.27;;;4.30;99.90;;;;;;5009448;28;20626;-87
2021/03/30 05:19:37;;;;;;;9.60;6.97;;;4.40;99.90;;;;;;5009414;28;20659;-87
2021/03/30 05:22:05;;;;;;;9.43;7.33;;;4.40;99.90;;;;;;5015173;28;20691;-87
2021/03/30 05:24:31;;;;;;;10.87;7.03;;;4.40;99.90;;;;;;5015398;28;20636;-86
2021/03/30 05:26:58;;;;;;;9.30;7.30;;;4.40;99.90;;;;;;4994425;28;20632;-87
2021/03/30 05:29:24;;;;;;;9.00;6.80;;;4.40;99.90;;;;;;5010334;28;20640;-88
2021/03/30 05:31:50;;;;;;;13.33;7.83;;;4.40;99.90;;;;;;5012890;28;20694;-88
2021/03/30 05:34:16;;;;;;;9.13;6.90;;;4.50;99.90;;;;;;5007364;28;20627;-88
2021/03/30 05:36:43;;;;;;;10.53;6.87;;;4.50;99.90;;;;;;5012044;28;20642;-86
2021/03/30 05:39:10;;;;;;;7.50;6.27;;;4.50;99.90;;;;;;5004101;28;20647;-85
2021/03/30 05:41:39;;;;;;;8.10;7.10;;;4.40;99.90;;;;;;5010588;28;20639;-86
2021/03/30 05:44:06;;;;;;;10.47;6.73;;;4.50;99.90;;;;;;5008831;28;20632;-88
2021/03/30 05:46:32;;;;;;;9.47;7.70;;;4.50;99.90;;;;;;5014276;28;20637;-88
2021/03/30 05:48:59;;;;;;;8.63;7.80;;;4.60;99.90;;;;;;5008039;28;20718;-88
2021/03/30 05:51:30;;;;;;;8.47;7.67;;;4.70;99.90;;;;;;4999768;28;20668;-87
2021/03/30 05:53:59;;;;;;;10.90;8.20;;;4.70;99.90;;;;;;5007294;28;20706;-88
2021/03/30 05:56:29;;;;;;;9.40;8.40;;;4.80;99.90;;;;;;5013713;28;21122;-89
2021/03/30 05:58:58;;;;;;;9.57;7.60;;;5.00;99.90;;;;;;5008419;28;20651;-88
2021/03/30 06:01:25;;;;;;;10.13;8.37;;;5.10;99.90;;;;;;5004904;28;20658;-88
2021/03/30 06:04:00;;;;;;;18.27;8.57;;;5.20;99.90;;;;;;4998947;28;20707;-88
2021/03/30 06:06:26;;;;;;;10.40;7.30;;;5.20;99.90;;;;;;5004271;28;20649;-89
2021/03/30 06:08:53;;;;;;;10.20;7.30;;;5.20;99.90;;;;;;4999267;28;20584;-88
2021/03/30 06:11:21;;;;;;;6.80;6.30;;;5.30;99.90;;;;;;5002443;28;20663;-89
2021/03/30 06:13:50;;;;;;;9.40;7.00;;;5.40;99.90;;;;;;5002955;28;20663;-88
2021/03/30 06:16:30;;;;;;;10.57;8.03;;;5.60;99.90;;;;;;5005722;28;20636;-87
2021/03/30 06:19:08;;;;;;;6.97;6.27;;;5.70;99.90;;;;;;5000355;28;20631;-88
2021/03/30 06:21:38;;;;;;;8.10;7.40;;;5.90;99.90;;;;;;5006531;28;20993;-88
2021/03/30 06:24:28;;;;;;;8.13;7.33;;;6.00;99.90;;;;;;5012626;28;20636;-88
2021/03/30 06:26:57;;;;;;;8.63;7.73;;;6.20;99.90;;;;;;5013701;28;20605;-88
2021/03/30 06:29:38;;;;;;;12.23;7.57;;;6.20;99.90;;;;;;5011494;28;20612;-88
2021/03/30 06:32:08;;;;;;;8.50;7.70;;;6.40;99.90;;;;;;5009154;28;20718;-88
2021/03/30 06:34:35;;;;;;;10.10;7.80;;;6.50;99.90;;;;;;5014321;28;20682;-89
2021/03/30 06:37:02;;;;;;;12.80;7.20;;;6.70;99.90;;;;;;5012968;28;20704;-88
2021/03/30 06:39:40;;;;;;;10.13;7.93;;;6.80;99.90;;;;;;5015312;28;20675;-89
2021/03/30 06:42:10;;;;;;;7.30;6.60;;;7.00;99.90;;;;;;5011935;28;20646;-89
2021/03/30 06:44:39;;;;;;;8.63;7.50;;;7.10;99.90;;;;;;5013715;28;21129;-89
2021/03/30 06:47:11;;;;;;;8.77;7.27;;;7.10;99.90;;;;;;5014401;28;20649;-89
2021/03/30 06:49:51;;;;;;;7.83;6.60;;;7.30;99.90;;;;;;5012222;28;20651;-89
2021/03/30 06:52:20;;;;;;;7.97;7.00;;;7.40;99.90;;;;;;5018315;28;20692;-88
2021/03/30 06:54:54;;;;;;;7.87;6.77;;;7.60;99.90;;;;;;5012131;28;20632;-88
2021/03/30 06:57:38;;;;;;;9.80;6.63;;;7.60;99.90;;;;;;5010118;28;20602;-89
2021/03/30 07:00:09;;;;;;;7.70;6.73;;;7.80;99.90;;;;;;5012084;28;20651;-87
2021/03/30 07:02:40;;;;;;;7.57;6.40;;;7.90;99.90;;;;;;5019545;28;20689;-87
2021/03/30 07:05:08;;;;;;;6.23;5.67;;;8.00;99.90;;;;;;5021463;28;20666;-87
2021/03/30 07:07:36;;;;;;;7.80;6.40;;;8.10;99.90;;;;;;5023418;28;20635;-88
2021/03/30 07:10:04;;;;;;;7.27;6.27;;;8.30;99.90;;;;;;5025581;28;20632;-87
2021/03/30 07:12:32;;;;;;;8.10;5.53;;;8.40;99.90;;;;;;5023259;28;20675;-88
2021/03/30 07:14:58;;;;;;;8.27;5.83;;;8.50;99.90;;;;;;5025425;28;20620;-86
2021/03/30 07:17:31;;;;;;;11.93;6.47;;;8.60;99.90;;;;;;5017032;28;20619;-90
2021/03/30 07:20:01;;;;;;;7.27;6.40;;;8.80;99.90;;;;;;5016142;28;21153;-89
2021/03/30 07:22:29;;;;;;;15.73;8.80;;;8.90;99.90;;;;;;5024706;28;20723;-90
2021/03/30 07:25:02;;;;;;;8.27;6.30;;;9.00;99.90;;;;;;5027839;28;20608;-89
2021/03/30 07:27:32;;;;;;;7.67;6.97;;;9.10;99.90;;;;;;5024892;28;20635;-89
2021/03/30 07:30:00;;;;;;;8.50;6.73;;;9.30;99.90;;;;;;5011050;28;20657;-89
2021/03/30 07:32:41;;;;;;;10.30;6.70;;;9.40;99.90;;;;;;5010879;28;20674;-89
2021/03/30 07:35:14;;;;;;;11.40;6.50;;;9.60;99.90;;;;;;5027665;28;20626;-88
2021/03/30 07:37:45;;;;;;;12.93;7.63;;;9.70;99.90;;;;;;4996763;28;20632;-89
2021/03/30 07:40:15;;;;;;;8.17;6.67;;;9.90;99.90;;;;;;5012462;28;20651;-89
2021/03/30 07:42:44;;;;;;;6.53;5.90;;;10.10;99.90;;;;;;5013918;28;20646;-89
2021/03/30 07:45:12;;;;;;;11.50;6.27;;;10.30;99.30;;;;;;5012667;28;20743;-88
2021/03/30 07:47:42;;;;;;;17.33;6.80;;;10.50;99.00;;;;;;5012376;28;21481;-90
2021/03/30 07:50:10;;;;;;;9.20;6.50;;;10.70;99.00;;;;;;5009424;28;20658;-89
2021/03/30 07:52:41;;;;;;;6.47;5.70;;;10.90;97.80;;;;;;5014142;28;20659;-90
2021/03/30 07:55:23;;;;;;;6.87;6.17;;;11.00;97.80;;;;;;5013725;28;21213;-89
2021/03/30 07:58:09;;;;;;;6.77;6.13;;;11.20;97.00;;;;;;5012292;28;20643;-88
2021/03/30 08:00:53;;;;;;;8.73;6.27;;;11.40;96.60;;;;;;5025569;28;20706;-89
2021/03/30 08:03:23;;;;;;;6.50;5.40;;;11.60;96.20;;;;;;5007537;28;20663;-88
2021/03/30 08:06:20;;;;;;;8.10;5.57;;;11.80;95.80;;;;;;5011301;28;20614;-89
2021/03/30 08:08:57;;;;;;;11.07;5.40;;;12.00;95.50;;;;;;5010741;28;21038;-88
2021/03/30 08:11:54;;;;;;;6.43;5.17;;;12.40;95.20;;;;;;5004973;28;20671;-88
2021/03/30 08:14:40;;;;;;;6.50;5.30;;;12.50;94.30;;;;;;4972808;28;20616;-88
2021/03/30 08:17:12;;;;;;;8.23;4.43;;;12.70;94.10;;;;;;5011194;28;20638;-91
2021/03/30 08:20:02;;;;;;;5.70;5.20;;;12.70;93.00;;;;;;5015512;28;20794;-88
2021/03/30 08:22:41;;;;;;;6.60;5.10;;;12.90;92.10;;;;;;5011887;28;20988;-89
2021/03/30 08:25:25;;;;;;;6.00;4.30;;;13.10;92.50;;;;;;5011592;28;20902;-88
2021/03/30 08:27:51;;;;;;;5.23;4.83;;;13.20;91.70;;;;;;5009803;28;20662;-89
2021/03/30 08:30:54;;;;;;;7.83;5.50;;;13.20;91.40;;;;;;5006512;28;20706;-89
2021/03/30 08:33:22;;;;;;;11.07;5.57;;;13.40;91.00;;;;;;5007357;28;20685;-90
2021/03/30 08:35:53;;;;;;;5.90;4.67;;;13.40;90.80;;;;;;5009874;28;20632;-89
2021/03/30 08:38:40;;;;;;;7.80;5.60;;;13.50;90.60;;;;;;5005312;28;20619;-88
2021/03/30 08:41:07;;;;;;;11.50;5.80;;;13.70;89.70;;;;;;5001247;28;20651;-90
2021/03/30 08:43:34;;;;;;;5.77;5.17;;;13.60;90.00;;;;;;5008260;28;21230;-89
2021/03/30 08:46:03;;;;;;;8.10;5.13;;;13.70;90.00;;;;;;5017805;28;21003;-88
2021/03/30 08:48:35;;;;;;;6.83;5.77;;;13.90;90.00;;;;;;5008524;28;20635;-89
2021/03/30 08:51:07;;;;;;;5.60;5.10;;;14.20;88.40;;;;;;5003475;28;20648;-88
2021/03/30 08:53:34;;;;;;;7.50;6.10;;;14.30;88.30;;;;;;5013472;28;20675;-89
2021/03/30 08:56:03;;;;;;;14.30;5.60;;;14.50;88.80;;;;;;5006118;28;20973;-90
2021/03/30 08:58:32;;;;;;;8.80;5.90;;;14.90;87.40;;;;;;5009028;28;20628;-90
2021/03/30 09:00:58;;;;;;;6.67;4.73;;;15.10;86.40;;;;;;5019476;28;20634;-88
2021/03/30 09:03:27;;;;;;;7.47;6.00;;;15.30;86.50;;;;;;5017302;28;20634;-89
2021/03/30 09:05:53;;;;;;;6.67;6.00;;;15.30;86.40;;;;;;5009116;28;20627;-89
2021/03/30 09:08:45;;;;;;;6.10;4.60;;;15.50;84.70;;;;;;5011842;28;20667;-89
2021/03/30 09:11:25;;;;;;;6.30;4.97;;;15.70;85.50;;;;;;5017464;28;20662;-89
2021/03/30 09:14:03;;;;;;;5.37;4.87;;;15.80;82.60;;;;;;5016456;28;20651;-89
2021/03/30 09:16:31;;;;;;;6.37;5.00;;;15.80;80.40;;;;;;5003382;28;21168;-89
2021/03/30 09:19:23;;;;;;;8.03;5.60;;;15.80;80.10;;;;;;5005189;28;20641;-89
2021/03/30 09:21:53;;;;;;;6.27;4.90;;;16.20;81.50;;;;;;5007895;28;20643;-89
2021/03/30 09:27:14;;;;;;;5.93;4.67;;;16.60;78.80;;;;;;4986176;28;20615;-89
2021/03/30 09:29:41;;;;;;;6.43;4.87;;;16.80;78.70;;;;;;5007365;28;20651;-88
2021/03/30 09:32:09;;;;;;;9.17;5.50;;;16.80;76.70;;;;;;5011261;28;21068;-89
2021/03/30 09:34:38;;;;;;;6.10;5.23;;;16.80;77.20;;;;;;5009010;28;21214;-90
2021/03/30 09:37:05;;;;;;;6.20;5.30;;;16.90;77.50;;;;;;5008215;28;20607;-89
2021/03/30 09:39:35;;;;;;;6.80;5.67;;;17.00;76.90;;;;;;5011010;28;20651;-89
2021/03/30 09:42:02;;;;;;;8.07;5.70;;;17.40;76.90;;;;;;5010748;28;21042;-90
2021/03/30 09:44:34;;;;;;;6.43;5.23;;;17.60;75.30;;;;;;5010509;28;20955;-90
2021/03/30 09:47:01;;;;;;;13.63;5.97;;;17.80;74.30;;;;;;5013550;28;21229;-89
2021/03/30 09:49:28;;;;;;;7.30;5.47;;;18.00;74.50;;;;;;5008874;28;20637;-90
2021/03/30 09:52:00;;;;;;;7.17;5.60;;;18.20;72.10;;;;;;5010932;28;20658;-89
2021/03/30 09:58:25;;;;;;;9.73;5.30;;;18.70;70.50;;;;;;5022134;28;20632;-91
2021/03/30 10:01:41;;;;;;;7.17;5.80;;;19.10;69.50;;;;;;5026401;28;20673;-89
2021/03/30 10:04:32;;;;;;;8.63;5.10;;;19.10;68.40;;;;;;5013811;28;20646;-90
2021/03/30 10:06:59;;;;;;;10.40;5.73;;;19.50;68.10;;;;;;5010253;28;20777;-90
2021/03/30 10:09:28;;;;;;;11.17;6.30;;;19.90;67.60;;;;;;5015467;28;20627;-90
2021/03/30 10:11:55;;;;;;;7.30;5.00;;;19.90;64.80;;;;;;5030893;28;20619;-88
2021/03/30 10:14:25;;;;;;;8.77;5.53;;;20.40;66.00;;;;;;5029686;28;20619;-91
2021/03/30 10:16:53;;;;;;;6.80;5.30;;;20.60;63.90;;;;;;5029728;28;20599;-90
2021/03/30 10:19:21;;;;;;;10.97;5.83;;;20.50;64.40;;;;;;5025336;28;20604;-90
2021/03/30 10:21:53;;;;;;;6.13;5.53;;;21.00;63.20;;;;;;5035635;28;20680;-91
2021/03/30 10:24:22;;;;;;;6.83;4.50;;;21.00;62.00;;;;;;5027944;28;20875;-92
2021/03/30 10:27:01;;;;;;;5.90;5.30;;;21.30;61.70;;;;;;5028483;28;20618;-90
2021/03/30 10:29:33;;;;;;;7.37;5.67;;;21.60;59.90;;;;;;5014975;28;20623;-91
2021/03/30 10:32:08;;;;;;;10.63;5.97;;;21.60;59.70;;;;;;5017081;28;20639;-91
2021/03/30 10:34:35;;;;;;;5.63;5.00;;;21.80;58.40;;;;;;5017469;28;20619;-90
2021/03/30 10:37:05;;;;;;;5.57;5.07;;;22.40;57.10;;;;;;5014900;28;21470;-90
2021/03/30 10:39:33;;;;;;;6.47;4.97;;;22.80;55.40;;;;;;5022508;28;20639;-91
2021/03/30 10:42:06;;;;;;;6.37;4.40;;;23.10;54.50;;;;;;5017179;28;20614;-91
2021/03/30 10:44:55;;;;;;;5.50;5.00;;;23.30;52.20;;;;;;5017044;28;20718;-91
2021/03/30 10:47:23;;;;;;;7.07;4.83;;;23.40;49.40;;;;;;5016380;28;21054;-90
2021/03/30 10:49:54;;;;;;;5.70;4.90;;;23.70;48.70;;;;;;5014360;28;20660;-90
2021/03/30 10:55:20;;;;;;;6.53;4.70;;;24.10;43.50;;;;;;5025944;28;20619;-90
2021/03/30 10:57:47;;;;;;;4.70;4.20;;;24.00;45.20;;;;;;5011790;28;20627;-89
2021/03/30 11:00:16;;;;;;;4.97;4.53;;;24.20;44.50;;;;;;5014058;28;20686;-90
2021/03/30 11:02:43;;;;;;;5.03;4.37;;;23.90;44.00;;;;;;5034758;28;20622;-92
2021/03/30 11:05:11;;;;;;;7.37;4.27;;;24.30;42.30;;;;;;5040957;28;20643;-91
2021/03/30 11:07:41;;;;;;;5.70;5.10;;;24.60;41.10;;;;;;5015370;28;20674;-89
2021/03/30 11:10:10;;;;;;;5.13;4.27;;;24.60;40.80;;;;;;5010621;28;20760;-90
2021/03/30 11:12:38;;;;;;;5.13;4.50;;;24.80;39.70;;;;;;5014012;28;20671;-92
2021/03/30 11:15:06;;;;;;;6.43;4.40;;;25.00;38.80;;;;;;5016614;28;20631;-89
2021/03/30 11:17:32;;;;;;;4.57;4.17;;;25.00;39.20;;;;;;5016484;28;20628;-90
2021/03/30 11:19:58;;;;;;;5.70;4.80;;;25.30;38.60;;;;;;5013922;28;20656;-89
2021/03/30 11:22:25;;;;;;;6.60;4.23;;;25.50;38.10;;;;;;5006705;28;20628;-89
2021/03/30 11:24:56;;;;;;;5.47;4.80;;;25.50;37.90;;;;;;5012500;28;20641;-91
2021/03/30 11:27:24;;;;;;;5.23;4.73;;;25.20;38.40;;;;;;5010375;28;20640;-90
2021/03/30 11:29:54;;;;;;;4.90;4.40;;;25.70;38.40;;;;;;5013657;28;20670;-90
2021/03/30 11:32:32;;;;;;;4.70;4.30;;;25.60;37.40;;;;;;5010938;28;20619;-91
2021/03/30 11:35:02;;;;;;;6.47;4.63;;;26.10;37.70;;;;;;5009728;28;20618;-92
2021/03/30 11:37:48;;;;;;;5.50;5.00;;;26.30;37.00;;;;;;5008734;28;20628;-92
2021/03/30 11:40:16;;;;;;;7.00;4.70;;;26.30;36.00;;;;;;5006113;28;20657;-91
2021/03/30 11:42:42;;;;;;;4.87;4.47;;;25.90;36.00;;;;;;5007214;28;20665;-89
2021/03/30 11:45:10;;;;;;;6.77;5.07;;;26.10;35.80;;;;;;5008365;28;20642;-92
2021/03/30 11:47:38;;;;;;;6.97;4.40;;;26.30;35.80;;;;;;5005463;28;20727;-91
2021/03/30 11:50:06;;;;;;;4.90;4.47;;;26.70;35.30;;;;;;5010172;28;20746;-92
2021/03/30 11:52:33;;;;;;;4.07;3.77;;;26.70;35.20;;;;;;5013273;28;20750;-90
2021/03/30 11:54:59;;;;;;;5.90;4.10;;;27.30;34.40;;;;;;5007443;28;20619;-90
2021/03/30 11:57:27;;;;;;;4.40;4.07;;;27.60;35.00;;;;;;5010264;28;20978;-91
2021/03/30 11:59:53;;;;;;;5.00;4.43;;;27.40;33.50;;;;;;5011996;28;20705;-91
2021/03/30 12:02:20;;;;;;;5.90;4.97;;;27.30;33.20;;;;;;5012491;28;21306;-91
2021/03/30 12:04:46;;;;;;;4.67;4.20;;;27.40;32.60;;;;;;5016839;28;20635;-91
2021/03/30 12:07:12;;;;;;;5.57;4.70;;;27.20;32.20;;;;;;5014835;28;20635;-90
2021/03/30 12:09:39;;;;;;;6.43;4.30;;;27.50;32.10;;;;;;5017752;28;21252;-91
2021/03/30 12:12:06;;;;;;;6.40;4.90;;;27.70;32.30;;;;;;5013062;28;20754;-90
2021/03/30 12:14:33;;;;;;;7.90;4.80;;;28.20;32.40;;;;;;5012817;28;20632;-91
2021/03/30 12:17:01;;;;;;;4.97;4.43;;;28.40;32.00;;;;;;5005026;28;21047;-89
2021/03/30 12:19:27;;;;;;;5.27;4.53;;;28.80;31.90;;;;;;5010460;28;20739;-90
2021/03/30 12:21:54;;;;;;;4.00;3.70;;;28.90;31.30;;;;;;5016205;28;21756;-91
2021/03/30 12:24:21;;;;;;;5.00;4.47;;;29.00;30.80;;;;;;5013142;28;20658;-91
2021/03/30 12:26:48;;;;;;;6.00;4.77;;;28.90;30.90;;;;;;5014407;28;20628;-90
2021/03/30 12:29:14;;;;;;;6.63;3.90;;;29.20;30.00;;;;;;5010147;28;20651;-91
2021/03/30 12:31:42;;;;;;;4.73;4.27;;;28.90;30.00;;;;;;5012010;28;20627;-90
2021/03/30 12:34:08;;;;;;;6.57;4.03;;;29.20;29.60;;;;;;5007911;28;21163;-89
2021/03/30 12:36:37;;;;;;;5.37;4.87;;;29.50;29.30;;;;;;5007564;28;21178;-90
2021/03/30 12:39:04;;;;;;;5.37;4.70;;;29.90;29.10;;;;;;5005664;28;20644;-91
2021/03/30 12:41:30;;;;;;;4.80;3.97;;;29.70;29.20;;;;;;5010996;28;20643;-90
2021/03/30 12:43:57;;;;;;;6.53;4.80;;;30.40;29.10;;;;;;5006987;28;20642;-89
2021/03/30 12:46:23;;;;;;;7.00;4.20;;;30.20;29.00;;;;;;5007726;28;20656;-90
2021/03/30 12:48:50;;;;;;;4.67;4.13;;;30.30;28.80;;;;;;5006754;28;20626;-89
2021/03/30 12:51:17;;;;;;;4.77;4.37;;;30.40;29.00;;;;;;5009356;28;21007;-90
2021/03/30 12:53:43;;;;;;;4.53;4.10;;;30.40;29.10;;;;;;5008080;28;20997;-89
2021/03/30 12:56:09;;;;;;;4.87;4.07;;;30.10;29.40;;;;;;5007074;28;21178;-89
2021/03/30 12:58:36;;;;;;;4.90;4.40;;;30.30;29.10;;;;;;5009710;28;20634;-89
2021/03/30 13:01:02;;;;;;;8.57;4.70;;;30.30;29.30;;;;;;5006177;28;20647;-89
2021/03/30 13:03:29;;;;;;;6.17;4.60;;;30.00;29.00;;;;;;5006880;28;21287;-89
2021/03/30 13:05:56;;;;;;;5.40;4.60;;;30.40;29.30;;;;;;5006377;28;20771;-90
2021/03/30 13:08:22;;;;;;;4.37;3.97;;;30.10;28.60;;;;;;5008998;28;20690;-89
2021/03/30 13:10:49;;;;;;;5.07;4.67;;;29.10;28.30;;;;;;5005511;28;20659;-90
2021/03/30 13:13:15;;;;;;;7.57;4.60;;;28.40;29.00;;;;;;5007403;28;20634;-90
2021/03/30 13:15:41;;;;;;;4.63;4.23;;;28.10;29.20;;;;;;5007308;28;20654;-90